createdAt,value
2022-10-25T00:01:45.553Z,8.73
2022-10-25T00:04:14.073Z,9.93
2022-10-25T00:06:41.768Z,8.82
2022-10-25T00:09:09.696Z,9.02
2022-10-25T00:11:37.228Z,8.70
2022-10-25T00:14:07.011Z,8.65
2022-10-25T00:16:37.260Z,8.35
2022-10-25T00:19:05.836Z,9.10
2022-10-25T00:21:33.350Z,8.48
2022-10-25T00:24:00.879Z,8.00
2022-10-25T00:26:28.350Z,8.13
2022-10-25T00:28:56.081Z,8.60
2022-10-25T00:31:24.692Z,9.70
2022-10-25T00:33:52.273Z,11.35
2022-10-25T00:36:25.545Z,11.73
2022-10-25T00:38:54.445Z,10.20
2022-10-25T00:41:24.283Z,8.95
2022-10-25T00:43:54.421Z,10.90
2022-10-25T00:46:21.987Z,8.60
2022-10-25T00:49:01.582Z,8.27
2022-10-25T00:51:38.995Z,8.13
2022-10-25T00:54:11.067Z,8.38
2022-10-25T00:56:41.027Z,9.00
2022-10-25T00:59:11.152Z,8.32
2022-10-25T01:01:39.372Z,8.55
2022-10-25T01:04:10.169Z,9.15
2022-10-25T01:06:45.602Z,9.25
2022-10-25T01:09:17.004Z,9.50
2022-10-25T01:11:44.558Z,8.88
2022-10-25T01:14:14.759Z,8.40
2022-10-25T01:16:48.720Z,9.13
2022-10-25T01:19:44.339Z,8.18
2022-10-25T01:22:11.735Z,8.40
2022-10-25T01:24:57.055Z,8.38
2022-10-25T01:27:24.489Z,8.48
2022-10-25T01:30:15.390Z,8.95
2022-10-25T01:32:50.825Z,9.02
2022-10-25T01:35:29.662Z,8.55
2022-10-25T01:38:31.913Z,8.65
2022-10-25T01:41:14.417Z,9.40
2022-10-25T01:43:46.702Z,8.30
2022-10-25T01:46:35.906Z,9.15
2022-10-25T01:49:12.665Z,8.43
2022-10-25T01:51:40.200Z,9.43
2022-10-25T01:54:23.082Z,8.57
2022-10-25T01:57:12.441Z,8.75
2022-10-25T02:00:00.326Z,8.38
2022-10-25T02:02:45.929Z,9.25
2022-10-25T02:05:41.485Z,9.13
2022-10-25T02:08:31.825Z,8.85
2022-10-25T02:11:08.004Z,8.85
2022-10-25T02:14:12.725Z,8.85
2022-10-25T02:17:09.345Z,8.35
2022-10-25T02:19:51.042Z,9.10
2022-10-25T02:22:21.198Z,9.25
2022-10-25T02:24:50.426Z,9.40
2022-10-25T02:27:20.552Z,8.43
2022-10-25T02:29:48.606Z,9.98
2022-10-25T02:32:16.068Z,9.02
2022-10-25T02:34:43.820Z,9.80
2022-10-25T02:37:11.227Z,9.70
2022-10-25T02:39:39.143Z,8.98
2022-10-25T02:42:06.638Z,9.52
2022-10-25T02:44:34.019Z,9.55
2022-10-25T02:47:01.390Z,9.23
2022-10-25T02:49:29.329Z,9.45
2022-10-25T02:51:56.700Z,9.50
2022-10-25T02:54:24.087Z,10.25
2022-10-25T02:56:52.738Z,9.45
2022-10-25T02:59:21.495Z,9.57
2022-10-25T03:01:49.367Z,10.43
2022-10-25T03:04:16.952Z,10.00
2022-10-25T03:06:44.387Z,10.88
2022-10-25T03:09:11.812Z,11.57
2022-10-25T03:11:39.433Z,11.18
2022-10-25T03:14:06.946Z,10.98
2022-10-25T03:16:34.456Z,10.93
2022-10-25T03:19:01.909Z,12.80
2022-10-25T03:21:34.350Z,12.90
2022-10-25T03:24:04.097Z,12.48
2022-10-25T03:26:31.715Z,13.45
2022-10-25T03:28:59.210Z,11.73
2022-10-25T03:31:26.707Z,10.98
2022-10-25T03:33:54.166Z,12.05
2022-10-25T03:36:21.606Z,10.82
2022-10-25T03:38:48.962Z,11.82
2022-10-25T03:41:16.495Z,11.20
2022-10-25T03:43:43.873Z,10.45
2022-10-25T03:46:11.297Z,11.30
2022-10-25T03:48:38.750Z,11.73
2022-10-25T03:51:06.265Z,11.63
2022-10-25T03:53:33.716Z,11.88
2022-10-25T03:56:01.180Z,12.80
2022-10-25T03:58:28.664Z,13.75
2022-10-25T04:00:56.337Z,16.98
2022-10-25T04:03:24.299Z,15.77
2022-10-25T04:05:51.708Z,12.20
2022-10-25T04:08:19.189Z,11.90
2022-10-25T04:10:47.294Z,11.65
2022-10-25T04:13:14.710Z,12.68
2022-10-25T04:15:42.125Z,16.92
2022-10-25T04:18:09.534Z,18.75
2022-10-25T04:20:36.995Z,15.60
2022-10-25T04:23:04.504Z,14.10
2022-10-25T04:25:32.058Z,13.25
2022-10-25T04:28:00.524Z,13.32
2022-10-25T04:30:27.986Z,13.25
2022-10-25T04:32:57.761Z,13.55
2022-10-25T04:35:25.302Z,13.65
2022-10-25T04:37:53.011Z,12.88
2022-10-25T04:40:24.030Z,17.55
2022-10-25T04:42:52.313Z,14.90
2022-10-25T04:45:19.915Z,12.85
2022-10-25T04:47:47.729Z,11.93
2022-10-25T04:50:15.602Z,12.07
2022-10-25T04:52:43.598Z,12.15
2022-10-25T04:55:11.276Z,12.20
2022-10-25T04:57:38.710Z,28.35
2022-10-25T05:00:06.720Z,34.20
2022-10-25T05:02:34.139Z,40.08
2022-10-25T05:05:01.668Z,43.30
2022-10-25T05:07:29.123Z,37.83
2022-10-25T05:09:56.563Z,22.13
2022-10-25T05:12:24.054Z,18.00
2022-10-25T05:14:51.573Z,17.60
2022-10-25T05:17:19.078Z,15.38
2022-10-25T05:19:46.535Z,14.98
2022-10-25T05:22:13.938Z,15.13
2022-10-25T05:24:41.324Z,13.38
2022-10-25T05:27:08.774Z,12.35
2022-10-25T05:29:36.338Z,12.88
2022-10-25T05:32:03.795Z,13.88
2022-10-25T05:34:31.314Z,13.05
2022-10-25T05:36:59.148Z,11.82
2022-10-25T05:39:27.133Z,14.68
2022-10-25T05:41:54.633Z,17.42
2022-10-25T05:44:22.119Z,12.13
2022-10-25T05:46:49.683Z,14.48
2022-10-25T05:49:17.183Z,14.88
2022-10-25T05:51:44.678Z,12.48
2022-10-25T05:54:14.466Z,14.13
2022-10-25T05:56:43.411Z,12.75
2022-10-25T05:59:13.101Z,14.68
2022-10-25T06:01:46.198Z,13.43
2022-10-25T06:04:14.753Z,12.23
2022-10-25T06:06:43.688Z,11.43
2022-10-25T06:09:11.689Z,11.90
2022-10-25T06:11:40.063Z,11.48
2022-10-25T06:14:09.612Z,11.48
2022-10-25T06:16:37.973Z,10.55
2022-10-25T06:19:06.466Z,11.10
2022-10-25T06:21:33.901Z,11.48
2022-10-25T06:24:01.745Z,11.50
2022-10-25T06:26:30.482Z,11.55
2022-10-25T06:29:01.314Z,11.38
2022-10-25T06:31:30.260Z,12.70
2022-10-25T06:34:00.757Z,12.52
2022-10-25T06:36:31.296Z,19.55
2022-10-25T06:39:05.152Z,22.65
2022-10-25T06:41:37.059Z,21.55
2022-10-25T06:44:07.198Z,28.48
2022-10-25T06:46:57.821Z,23.23
2022-10-25T06:49:24.893Z,14.93
2022-10-25T06:51:52.370Z,17.00
2022-10-25T06:54:19.906Z,13.27
2022-10-25T06:56:48.529Z,11.63
2022-10-25T06:59:15.977Z,14.60
2022-10-25T07:01:43.642Z,11.35
2022-10-25T07:04:11.229Z,12.88
2022-10-25T07:06:38.841Z,11.63
2022-10-25T07:09:08.950Z,12.07
2022-10-25T07:11:36.681Z,13.85
2022-10-25T07:14:04.831Z,14.70
2022-10-25T07:16:32.500Z,13.77
2022-10-25T07:19:04.343Z,15.10
2022-10-25T07:21:32.597Z,14.60
2022-10-25T07:24:00.235Z,18.42
2022-10-25T07:26:35.732Z,20.40
2022-10-25T07:29:04.188Z,26.27
2022-10-25T07:31:37.175Z,21.38
2022-10-25T07:34:09.226Z,25.48
2022-10-25T07:36:36.746Z,22.75
2022-10-25T07:39:04.403Z,20.50
2022-10-25T07:41:32.009Z,35.97
2022-10-25T07:43:59.669Z,56.50
2022-10-25T07:46:27.189Z,36.35
2022-10-25T07:48:54.711Z,23.75
2022-10-25T07:51:22.304Z,24.60
2022-10-25T07:53:50.174Z,28.13
2022-10-25T07:56:23.087Z,37.58
2022-10-25T07:58:54.306Z,28.73
2022-10-25T08:01:24.856Z,21.10
2022-10-25T08:03:54.028Z,21.92
2022-10-25T08:06:23.573Z,20.27
2022-10-25T08:08:51.343Z,22.50
2022-10-25T08:11:18.960Z,21.42
2022-10-25T08:13:50.117Z,23.65
2022-10-25T08:18:44.903Z,27.52
2022-10-25T08:21:12.451Z,21.10
2022-10-25T08:23:39.996Z,23.92
2022-10-25T08:26:07.641Z,38.40
2022-10-25T08:28:35.171Z,37.67
2022-10-25T08:31:04.448Z,36.42
2022-10-25T08:33:33.063Z,38.83
2022-10-25T08:36:02.505Z,23.20
2022-10-25T08:38:30.392Z,26.70
2022-10-25T08:41:21.564Z,24.20
2022-10-25T08:44:15.138Z,24.75
2022-10-25T08:46:48.436Z,22.35
2022-10-25T08:49:44.360Z,20.98
2022-10-25T08:52:43.417Z,20.08
2022-10-25T08:55:20.613Z,20.77
2022-10-25T08:57:50.843Z,22.77
2022-10-25T09:00:22.686Z,22.77
2022-10-25T09:02:58.195Z,19.98
2022-10-25T09:06:01.047Z,24.00
2022-10-25T09:08:47.128Z,21.92
2022-10-25T09:11:39.722Z,20.40
2022-10-25T09:14:23.428Z,20.40
2022-10-25T09:16:52.675Z,20.55
2022-10-25T09:19:31.642Z,19.88
2022-10-25T09:22:13.418Z,22.90
2022-10-25T09:25:09.473Z,20.45
2022-10-25T09:27:48.642Z,16.55
2022-10-25T09:30:16.559Z,16.88
2022-10-25T09:32:56.889Z,17.80
2022-10-25T09:35:40.765Z,18.80
2022-10-25T09:38:12.895Z,17.85
2022-10-25T09:41:02.269Z,16.83
2022-10-25T09:44:01.652Z,16.25
2022-10-25T09:46:47.479Z,16.65
2022-10-25T09:49:33.833Z,18.00
2022-10-25T09:52:07.221Z,17.65
2022-10-25T09:55:00.679Z,19.65
2022-10-25T09:57:29.055Z,19.80
2022-10-25T09:59:56.924Z,20.55
2022-10-25T10:02:27.167Z,19.65
2022-10-25T10:04:54.984Z,19.27
2022-10-25T10:07:34.832Z,18.80
2022-10-25T10:10:05.860Z,19.45
2022-10-25T10:12:44.393Z,18.85
2022-10-25T10:15:41.823Z,19.65
2022-10-25T10:18:24.274Z,19.95
2022-10-25T10:21:01.766Z,21.17
2022-10-25T10:23:51.675Z,21.33
2022-10-25T10:26:21.822Z,20.98
2022-10-25T10:28:55.018Z,22.10
2022-10-25T10:31:23.008Z,22.85
2022-10-25T10:33:51.872Z,23.30
2022-10-25T10:36:28.298Z,25.55
2022-10-25T10:39:20.475Z,23.33
2022-10-25T10:42:16.036Z,25.85
2022-10-25T10:45:07.929Z,26.83
2022-10-25T10:47:51.392Z,26.88
2022-10-25T10:50:25.761Z,27.40
2022-10-25T10:53:13.971Z,23.52
2022-10-25T10:55:53.217Z,26.80
2022-10-25T10:58:39.213Z,29.77
2022-10-25T11:01:06.763Z,26.35
2022-10-25T11:03:58.834Z,23.10
2022-10-25T11:06:30.487Z,20.27
2022-10-25T11:09:13.104Z,21.40
2022-10-25T11:11:41.543Z,19.40
2022-10-25T11:14:16.894Z,21.08
2022-10-25T11:17:07.873Z,22.77
2022-10-25T11:20:09.950Z,23.58
2022-10-25T11:22:42.617Z,25.58
2022-10-25T11:25:25.674Z,24.92
2022-10-25T11:28:23.827Z,23.10
2022-10-25T11:31:21.018Z,22.17
2022-10-25T11:34:29.281Z,23.27
2022-10-25T11:37:27.852Z,22.67
2022-10-25T11:40:02.507Z,23.35
2022-10-25T11:42:56.409Z,23.85
2022-10-25T11:45:39.666Z,24.15
2022-10-25T11:48:37.690Z,23.90
2022-10-25T11:51:29.022Z,23.02
2022-10-25T11:57:04.858Z,23.08
2022-10-25T11:59:35.873Z,25.25
2022-10-25T12:02:35.698Z,24.85
2022-10-25T12:05:12.359Z,22.90
2022-10-25T12:07:50.718Z,23.48
2022-10-25T12:10:35.055Z,23.65
2022-10-25T12:13:12.927Z,24.88
2022-10-25T12:15:46.758Z,22.92
2022-10-25T12:18:26.195Z,24.45
2022-10-25T12:20:55.753Z,24.10
2022-10-25T12:23:26.065Z,24.25
2022-10-25T12:25:58.569Z,24.80
2022-10-25T12:28:49.393Z,25.70
2022-10-25T12:31:21.711Z,28.58
2022-10-25T12:34:07.059Z,28.85
2022-10-25T12:36:39.041Z,36.50
2022-10-25T12:39:30.745Z,35.72
2022-10-25T12:42:20.455Z,40.67
2022-10-25T12:45:12.046Z,37.72
2022-10-25T12:48:13.445Z,50.70
2022-10-25T12:53:52.242Z,47.60
2022-10-25T12:56:43.435Z,37.30
2022-10-25T12:59:28.636Z,30.23
2022-10-25T13:02:34.068Z,33.95
2022-10-25T13:05:28.405Z,31.88
2022-10-25T13:07:59.180Z,28.13
2022-10-25T13:10:27.143Z,29.17
2022-10-25T13:13:07.997Z,27.80
2022-10-25T13:15:53.303Z,29.65
2022-10-25T13:18:32.735Z,31.25
2022-10-25T13:21:08.869Z,33.95
2022-10-25T13:23:51.660Z,32.25
2022-10-25T13:26:21.990Z,29.48
2022-10-25T13:28:50.411Z,27.60
2022-10-25T13:31:35.770Z,25.65
2022-10-25T13:34:14.819Z,26.25
2022-10-25T13:36:54.236Z,26.60
2022-10-25T13:39:37.467Z,26.38
2022-10-25T13:42:17.059Z,41.47
2022-10-25T13:45:02.668Z,27.25
2022-10-25T13:47:46.560Z,27.30
2022-10-25T13:50:33.479Z,38.17
2022-10-25T13:53:34.323Z,27.85
2022-10-25T13:56:17.457Z,32.08
2022-10-25T13:58:48.523Z,30.23
2022-10-25T14:04:02.193Z,31.55
2022-10-25T14:06:37.923Z,30.45
2022-10-25T14:09:23.912Z,31.08
2022-10-25T14:11:53.548Z,32.60
2022-10-25T14:14:35.024Z,29.55
2022-10-25T14:17:11.559Z,29.35
2022-10-25T14:19:45.568Z,33.38
2022-10-25T14:22:23.331Z,35.45
2022-10-25T14:24:54.238Z,30.70
2022-10-25T14:27:39.836Z,28.10
2022-10-25T14:30:29.098Z,24.27
2022-10-25T14:33:02.010Z,22.58
2022-10-25T14:35:36.542Z,21.63
2022-10-25T14:38:15.678Z,17.73
2022-10-25T14:40:51.264Z,17.20
2022-10-25T14:43:26.747Z,17.88
2022-10-25T14:46:13.541Z,12.68
2022-10-25T14:48:43.068Z,20.10
2022-10-25T14:51:37.765Z,15.07
2022-10-25T14:54:08.093Z,16.77
2022-10-25T14:56:37.763Z,16.20
2022-10-25T14:59:14.015Z,14.15
2022-10-25T15:01:51.793Z,13.68
2022-10-25T15:04:38.031Z,11.93
2022-10-25T15:07:07.548Z,14.85
2022-10-25T15:09:42.718Z,13.15
2022-10-25T15:12:13.406Z,12.07
2022-10-25T15:14:41.815Z,15.30
2022-10-25T15:17:30.771Z,15.10
2022-10-25T15:20:16.423Z,14.55
2022-10-25T15:22:49.331Z,11.43
2022-10-25T15:25:38.839Z,12.52
2022-10-25T15:28:13.946Z,12.40
2022-10-25T15:30:49.906Z,12.20
2022-10-25T15:33:25.439Z,9.05
2022-10-25T15:35:56.064Z,9.82
2022-10-25T15:38:42.119Z,9.80
2022-10-25T15:41:14.996Z,8.57
2022-10-25T15:43:42.431Z,9.40
2022-10-25T15:46:33.241Z,8.75
2022-10-25T15:49:04.868Z,8.98
2022-10-25T15:51:52.927Z,7.50
2022-10-25T15:54:22.949Z,7.20
2022-10-25T15:56:51.856Z,6.78
2022-10-25T15:59:19.234Z,6.72
2022-10-25T16:01:51.150Z,7.22
2022-10-25T16:04:19.654Z,6.13
2022-10-25T16:06:48.247Z,6.35
2022-10-25T16:09:15.653Z,7.45
2022-10-25T16:11:48.649Z,7.45
2022-10-25T16:14:23.752Z,7.70
2022-10-25T16:16:51.599Z,9.82
2022-10-25T16:19:20.347Z,8.35
2022-10-25T16:21:47.881Z,8.10
2022-10-25T16:24:15.341Z,8.63
2022-10-25T16:26:45.071Z,9.18
2022-10-25T16:29:17.262Z,9.65
2022-10-25T16:31:45.028Z,13.50
2022-10-25T16:34:12.826Z,10.95
2022-10-25T16:36:43.270Z,11.52
2022-10-25T16:39:11.580Z,11.07
2022-10-25T16:41:44.884Z,11.60
2022-10-25T16:44:13.984Z,12.82
2022-10-25T16:46:41.629Z,12.57
2022-10-25T16:49:09.660Z,13.25
2022-10-25T16:51:38.344Z,14.20
2022-10-25T16:54:06.414Z,14.82
2022-10-25T16:56:33.952Z,13.48
2022-10-25T16:59:01.527Z,14.90
2022-10-25T17:01:40.003Z,14.73
2022-10-25T17:04:10.686Z,15.02
2022-10-25T17:06:42.357Z,16.48
2022-10-25T17:09:11.348Z,15.38
2022-10-25T17:11:38.881Z,16.58
2022-10-25T17:14:06.790Z,16.60
2022-10-25T17:16:34.214Z,16.90
2022-10-25T17:19:03.403Z,20.05
2022-10-25T17:21:31.648Z,17.23
2022-10-25T17:23:59.699Z,18.27
2022-10-25T17:26:27.071Z,16.83
2022-10-25T17:28:54.722Z,16.58
2022-10-25T17:31:22.113Z,16.35
2022-10-25T17:33:49.551Z,15.77
2022-10-25T17:36:18.865Z,16.30
2022-10-25T17:38:46.576Z,17.08
2022-10-25T17:41:14.950Z,17.15
2022-10-25T17:43:42.706Z,17.05
2022-10-25T17:46:18.967Z,16.73
2022-10-25T17:48:47.167Z,17.08
2022-10-25T17:51:15.551Z,16.63
2022-10-25T17:53:43.098Z,16.70
2022-10-25T17:56:18.688Z,16.63
2022-10-25T17:58:47.606Z,18.25
2022-10-25T18:01:20.935Z,17.23
2022-10-25T18:03:50.013Z,16.55
2022-10-25T18:06:19.673Z,15.88
2022-10-25T18:08:52.308Z,16.35
2022-10-25T18:11:24.358Z,16.38
2022-10-25T18:13:58.107Z,15.82
2022-10-25T18:16:27.190Z,15.75
2022-10-25T18:18:57.082Z,15.82
2022-10-25T18:21:25.372Z,17.02
2022-10-25T18:23:57.796Z,15.88
2022-10-25T18:26:25.811Z,16.15
2022-10-25T18:28:53.831Z,16.35
2022-10-25T18:31:21.422Z,18.70
2022-10-25T18:33:49.188Z,16.33
2022-10-25T18:36:20.003Z,16.80
2022-10-25T18:38:49.376Z,16.63
2022-10-25T18:41:28.994Z,16.38
2022-10-25T18:43:57.005Z,16.98
2022-10-25T18:46:26.538Z,16.73
2022-10-25T18:48:54.574Z,16.38
2022-10-25T18:51:24.231Z,15.73
2022-10-25T18:54:00.205Z,15.70
2022-10-25T18:56:29.427Z,15.98
2022-10-25T18:58:59.325Z,15.63
2022-10-25T19:01:33.797Z,15.60
2022-10-25T19:04:03.946Z,13.35
2022-10-25T19:06:32.679Z,13.70
2022-10-25T19:09:00.424Z,14.07
2022-10-25T19:11:27.982Z,13.93
2022-10-25T19:13:56.710Z,14.10
2022-10-25T19:16:24.403Z,14.20
2022-10-25T19:18:52.457Z,13.52
2022-10-25T19:21:20.034Z,13.40
2022-10-25T19:23:49.551Z,13.25
2022-10-25T19:26:19.934Z,13.18
2022-10-25T19:28:54.622Z,12.57
2022-10-25T19:31:28.490Z,12.55
2022-10-25T19:34:00.624Z,12.70
2022-10-25T19:36:30.372Z,11.93
2022-10-25T19:39:01.755Z,13.00
2022-10-25T19:41:30.702Z,13.50
2022-10-25T19:43:59.365Z,14.30
2022-10-25T19:46:26.820Z,14.07
2022-10-25T19:48:56.312Z,14.70
2022-10-25T19:51:23.893Z,13.18
2022-10-25T19:53:51.517Z,12.52
2022-10-25T19:56:25.259Z,11.48
2022-10-25T19:58:52.744Z,13.90
2022-10-25T20:01:24.975Z,12.20
2022-10-25T20:03:55.839Z,12.88
2022-10-25T20:06:28.334Z,12.77
2022-10-25T20:11:24.687Z,11.70
2022-10-25T20:13:57.290Z,11.68
2022-10-25T20:16:25.795Z,11.90
2022-10-25T20:18:53.692Z,12.05
2022-10-25T20:21:24.585Z,11.88
2022-10-25T20:23:58.991Z,10.95
2022-10-25T20:26:29.985Z,10.95
2022-10-25T20:29:00.540Z,10.65
2022-10-25T20:31:30.629Z,10.90
2022-10-25T20:33:58.426Z,11.10
2022-10-25T20:36:26.267Z,11.13
2022-10-25T20:38:53.739Z,11.25
2022-10-25T20:41:24.706Z,11.18
2022-10-25T20:43:54.972Z,11.55
2022-10-25T20:46:24.329Z,11.53
2022-10-25T20:48:51.970Z,11.30
2022-10-25T20:51:19.804Z,12.13
2022-10-25T20:53:48.829Z,11.90
2022-10-25T20:56:17.766Z,11.75
2022-10-25T20:58:45.766Z,12.15
2022-10-25T21:01:13.406Z,11.35
2022-10-25T21:03:41.338Z,10.73
2022-10-25T21:06:14.613Z,11.25
2022-10-25T21:08:42.298Z,12.43
2022-10-25T21:11:12.513Z,13.50
2022-10-25T21:13:40.308Z,11.20
2022-10-25T21:16:13.060Z,12.93
2022-10-25T21:18:41.841Z,11.45
2022-10-25T21:21:15.608Z,11.27
2022-10-25T21:23:43.027Z,11.85
2022-10-25T21:26:10.734Z,11.98
2022-10-25T21:28:40.477Z,12.20
2022-10-25T21:31:14.279Z,10.98
2022-10-25T21:33:50.199Z,10.95
2022-10-25T21:36:20.622Z,10.60
2022-10-25T21:38:48.771Z,10.65
2022-10-25T21:41:19.938Z,10.15
2022-10-25T21:46:18.010Z,9.73
2022-10-25T21:48:48.055Z,10.15
2022-10-25T21:51:15.833Z,9.98
2022-10-25T21:53:43.619Z,9.32
2022-10-25T21:56:19.647Z,9.20
2022-10-25T21:58:50.040Z,9.65
2022-10-25T22:01:19.579Z,9.63
2022-10-25T22:03:47.187Z,9.80
2022-10-25T22:06:20.757Z,11.20
2022-10-25T22:08:49.189Z,10.82
2022-10-25T22:11:22.502Z,10.93
2022-10-25T22:13:55.651Z,11.52
2022-10-25T22:16:23.182Z,11.95
2022-10-25T22:19:03.152Z,11.27
2022-10-25T22:21:33.927Z,12.05
2022-10-25T22:24:01.716Z,11.75
2022-10-25T22:26:29.279Z,12.60
2022-10-25T22:28:58.318Z,12.68
2022-10-25T22:31:28.558Z,12.93
2022-10-25T22:33:58.579Z,13.00
2022-10-25T22:36:28.189Z,13.23
2022-10-25T22:38:57.060Z,13.13
2022-10-25T22:41:27.209Z,13.77
2022-10-25T22:43:54.954Z,13.90
2022-10-25T22:46:25.584Z,12.65
2022-10-25T22:48:54.803Z,13.48
2022-10-25T22:51:23.652Z,13.45
2022-10-25T22:53:52.026Z,14.32
2022-10-25T22:56:28.151Z,14.40
2022-10-25T22:58:57.576Z,14.10
2022-10-25T23:01:27.559Z,13.63
2022-10-25T23:03:56.412Z,13.98
2022-10-25T23:06:29.045Z,15.23
2022-10-25T23:08:58.843Z,15.65
2022-10-25T23:11:34.080Z,15.63
2022-10-25T23:14:02.337Z,16.20
2022-10-25T23:16:30.083Z,17.17
2022-10-25T23:18:57.940Z,17.83
2022-10-25T23:21:27.630Z,17.17
2022-10-25T23:23:56.341Z,18.25
2022-10-25T23:26:34.884Z,18.52
2022-10-25T23:29:03.553Z,18.20
2022-10-25T23:31:31.761Z,20.70
2022-10-25T23:34:00.825Z,20.02
2022-10-25T23:36:30.665Z,20.35
2022-10-25T23:38:58.617Z,20.42
2022-10-25T23:41:26.173Z,21.17
2022-10-25T23:43:53.592Z,22.10
2022-10-25T23:46:21.185Z,21.67
2022-10-25T23:48:48.664Z,23.35
2022-10-25T23:51:18.356Z,22.83
2022-10-25T23:53:45.896Z,23.88
2022-10-25T23:56:14.246Z,22.60
2022-10-25T23:58:41.869Z,23.52
